sensor_id;sensor_type;location;lat;lon;timestamp;temperature;humidity
33741;DHT22;20065;48.380;10.892;2023-07-31T00:01:00;17.90;99.90
33741;DHT22;20065;48.380;10.892;2023-07-31T00:03:47;17.80;99.90
33741;DHT22;20065;48.380;10.892;2023-07-31T00:06:33;17.90;99.90
33741;DHT22;20065;48.380;10.892;2023-07-31T00:09:23;17.70;99.90
33741;DHT22;20065;48.380;10.892;2023-07-31T00:12:12;17.80;99.90
33741;DHT22;20065;48.380;10.892;2023-07-31T00:14:58;17.80;99.90
33741;DHT22;20065;48.380;10.892;2023-07-31T00:17:45;17.70;99.90
33741;DHT22;20065;48.380;10.892;2023-07-31T00:20:33;17.60;99.90
33741;DHT22;20065;48.380;10.892;2023-07-31T00:23:20;17.60;99.90
33741;DHT22;20065;48.380;10.892;2023-07-31T00:26:06;17.70;99.90
33741;DHT22;20065;48.380;10.892;2023-07-31T00:28:52;17.40;99.90
33741;DHT22;20065;48.380;10.892;2023-07-31T00:31:38;17.40;99.90
33741;DHT22;20065;48.380;10.892;2023-07-31T00:34:25;17.30;99.90
33741;DHT22;20065;48.380;10.892;2023-07-31T00:37:11;17.20;99.90
33741;DHT22;20065;48.380;10.892;2023-07-31T00:39:57;17.20;99.90
33741;DHT22;20065;48.380;10.892;2023-07-31T00:42:43;17.10;99.90
33741;DHT22;20065;48.380;10.892;2023-07-31T00:45:30;17.10;99.90
33741;DHT22;20065;48.380;10.892;2023-07-31T00:48:16;17.00;99.90
33741;DHT22;20065;48.380;10.892;2023-07-31T00:51:03;17.00;99.90
33741;DHT22;20065;48.380;10.892;2023-07-31T00:53:53;17.00;99.90
33741;DHT22;20065;48.380;10.892;2023-07-31T00:56:41;16.90;99.90
33741;DHT22;20065;48.380;10.892;2023-07-31T00:59:27;16.90;99.90
33741;DHT22;20065;48.380;10.892;2023-07-31T01:02:14;16.90;99.90
33741;DHT22;20065;48.380;10.892;2023-07-31T01:05:01;16.80;99.90
33741;DHT22;20065;48.380;10.892;2023-07-31T01:07:52;16.70;99.90
33741;DHT22;20065;48.380;10.892;2023-07-31T01:10:48;16.80;99.90
33741;DHT22;20065;48.380;10.892;2023-07-31T01:13:35;16.80;99.90
33741;DHT22;20065;48.380;10.892;2023-07-31T01:16:22;16.80;99.90
33741;DHT22;20065;48.380;10.892;2023-07-31T01:19:12;16.70;99.90
33741;DHT22;20065;48.380;10.892;2023-07-31T01:22:16;16.70;99.90
33741;DHT22;20065;48.380;10.892;2023-07-31T01:28:28;16.80;99.90
33741;DHT22;20065;48.380;10.892;2023-07-31T01:31:21;16.80;99.90
33741;DHT22;20065;48.380;10.892;2023-07-31T01:34:09;16.80;99.90
33741;DHT22;20065;48.380;10.892;2023-07-31T01:36:57;16.70;99.90
33741;DHT22;20065;48.380;10.892;2023-07-31T01:39:44;16.70;99.90
33741;DHT22;20065;48.380;10.892;2023-07-31T01:42:33;16.80;99.90
33741;DHT22;20065;48.380;10.892;2023-07-31T01:45:19;16.90;99.90
33741;DHT22;20065;48.380;10.892;2023-07-31T01:48:06;16.90;99.90
33741;DHT22;20065;48.380;10.892;2023-07-31T01:50:52;16.80;99.90
33741;DHT22;20065;48.380;10.892;2023-07-31T01:53:38;16.70;99.90
33741;DHT22;20065;48.380;10.892;2023-07-31T01:56:25;16.70;99.90
33741;DHT22;20065;48.380;10.892;2023-07-31T01:59:12;16.70;99.90
33741;DHT22;20065;48.380;10.892;2023-07-31T02:01:59;16.70;99.90
33741;DHT22;20065;48.380;10.892;2023-07-31T02:04:45;16.70;99.90
33741;DHT22;20065;48.380;10.892;2023-07-31T02:07:31;16.70;99.90
33741;DHT22;20065;48.380;10.892;2023-07-31T02:10:18;16.80;99.90
33741;DHT22;20065;48.380;10.892;2023-07-31T02:13:04;16.80;99.90
33741;DHT22;20065;48.380;10.892;2023-07-31T02:15:50;16.90;99.90
33741;DHT22;20065;48.380;10.892;2023-07-31T02:18:37;17.00;99.90
33741;DHT22;20065;48.380;10.892;2023-07-31T02:21:23;16.90;99.90
33741;DHT22;20065;48.380;10.892;2023-07-31T02:24:09;16.90;99.90
33741;DHT22;20065;48.380;10.892;2023-07-31T02:26:55;17.00;99.90
33741;DHT22;20065;48.380;10.892;2023-07-31T02:29:42;17.00;99.90
33741;DHT22;20065;48.380;10.892;2023-07-31T02:32:28;17.00;99.90
33741;DHT22;20065;48.380;10.892;2023-07-31T02:35:14;17.00;99.90
33741;DHT22;20065;48.380;10.892;2023-07-31T02:38:01;16.90;99.90
33741;DHT22;20065;48.380;10.892;2023-07-31T02:40:47;16.70;99.90
33741;DHT22;20065;48.380;10.892;2023-07-31T02:47:42;16.60;99.90
33741;DHT22;20065;48.380;10.892;2023-07-31T02:50:28;16.60;99.90
33741;DHT22;20065;48.380;10.892;2023-07-31T02:53:15;16.60;99.90
33741;DHT22;20065;48.380;10.892;2023-07-31T02:56:01;16.70;99.90
33741;DHT22;20065;48.380;10.892;2023-07-31T02:58:47;16.70;99.90
33741;DHT22;20065;48.380;10.892;2023-07-31T03:01:33;16.80;99.90
33741;DHT22;20065;48.380;10.892;2023-07-31T03:04:19;16.70;99.90
33741;DHT22;20065;48.380;10.892;2023-07-31T03:07:06;16.90;99.90
33741;DHT22;20065;48.380;10.892;2023-07-31T03:09:52;16.80;99.90
33741;DHT22;20065;48.380;10.892;2023-07-31T03:12:39;16.70;99.90
33741;DHT22;20065;48.380;10.892;2023-07-31T03:15:25;16.60;99.90
33741;DHT22;20065;48.380;10.892;2023-07-31T03:18:12;16.60;99.90
33741;DHT22;20065;48.380;10.892;2023-07-31T03:20:58;16.60;99.90
33741;DHT22;20065;48.380;10.892;2023-07-31T03:23:44;16.70;99.90
33741;DHT22;20065;48.380;10.892;2023-07-31T03:26:33;16.90;99.90
33741;DHT22;20065;48.380;10.892;2023-07-31T03:29:20;16.90;99.90
33741;DHT22;20065;48.380;10.892;2023-07-31T03:32:07;17.00;99.90
33741;DHT22;20065;48.380;10.892;2023-07-31T03:34:53;17.00;99.90
33741;DHT22;20065;48.380;10.892;2023-07-31T03:37:39;16.90;99.90
33741;DHT22;20065;48.380;10.892;2023-07-31T03:40:26;17.00;99.90
33741;DHT22;20065;48.380;10.892;2023-07-31T03:43:13;16.80;99.90
33741;DHT22;20065;48.380;10.892;2023-07-31T03:46:02;16.70;99.90
33741;DHT22;20065;48.380;10.892;2023-07-31T03:48:48;16.60;99.90
33741;DHT22;20065;48.380;10.892;2023-07-31T03:51:35;16.50;99.90
33741;DHT22;20065;48.380;10.892;2023-07-31T03:54:21;16.50;99.90
33741;DHT22;20065;48.380;10.892;2023-07-31T03:57:07;16.50;99.90
33741;DHT22;20065;48.380;10.892;2023-07-31T03:59:53;16.40;99.90
33741;DHT22;20065;48.380;10.892;2023-07-31T04:02:39;16.40;99.90
33741;DHT22;20065;48.380;10.892;2023-07-31T04:05:26;16.40;99.90
33741;DHT22;20065;48.380;10.892;2023-07-31T04:08:12;16.50;99.90
33741;DHT22;20065;48.380;10.892;2023-07-31T04:10:58;16.40;99.90
33741;DHT22;20065;48.380;10.892;2023-07-31T04:13:44;16.50;99.90
33741;DHT22;20065;48.380;10.892;2023-07-31T04:16:30;16.50;99.90
33741;DHT22;20065;48.380;10.892;2023-07-31T04:19:16;16.50;99.90
33741;DHT22;20065;48.380;10.892;2023-07-31T04:22:03;16.60;99.90
33741;DHT22;20065;48.380;10.892;2023-07-31T04:24:50;16.60;99.90
33741;DHT22;20065;48.380;10.892;2023-07-31T04:27:36;16.60;99.90
33741;DHT22;20065;48.380;10.892;2023-07-31T04:30:22;16.60;99.90
33741;DHT22;20065;48.380;10.892;2023-07-31T04:33:08;16.60;99.90
33741;DHT22;20065;48.380;10.892;2023-07-31T04:35:54;16.70;99.90
33741;DHT22;20065;48.380;10.892;2023-07-31T04:38:41;16.70;99.90
33741;DHT22;20065;48.380;10.892;2023-07-31T04:41:27;16.80;99.90
33741;DHT22;20065;48.380;10.892;2023-07-31T04:44:14;16.80;99.90
33741;DHT22;20065;48.380;10.892;2023-07-31T04:47:03;16.80;99.90
33741;DHT22;20065;48.380;10.892;2023-07-31T04:49:50;16.80;99.90
33741;DHT22;20065;48.380;10.892;2023-07-31T04:52:36;16.90;99.90
33741;DHT22;20065;48.380;10.892;2023-07-31T04:55:22;16.90;99.90
33741;DHT22;20065;48.380;10.892;2023-07-31T04:58:08;17.00;99.90
33741;DHT22;20065;48.380;10.892;2023-07-31T05:00:55;17.00;99.90
33741;DHT22;20065;48.380;10.892;2023-07-31T05:03:41;16.90;99.90
33741;DHT22;20065;48.380;10.892;2023-07-31T05:06:27;16.90;99.90
33741;DHT22;20065;48.380;10.892;2023-07-31T05:09:13;16.90;99.90
33741;DHT22;20065;48.380;10.892;2023-07-31T05:12:00;16.90;99.90
33741;DHT22;20065;48.380;10.892;2023-07-31T05:14:46;16.90;99.90
33741;DHT22;20065;48.380;10.892;2023-07-31T05:17:32;16.80;99.90
33741;DHT22;20065;48.380;10.892;2023-07-31T05:20:18;16.80;99.90
33741;DHT22;20065;48.380;10.892;2023-07-31T05:23:04;16.80;99.90
33741;DHT22;20065;48.380;10.892;2023-07-31T05:25:51;16.80;99.90
33741;DHT22;20065;48.380;10.892;2023-07-31T05:28:37;16.70;99.90
33741;DHT22;20065;48.380;10.892;2023-07-31T05:31:23;16.70;99.90
33741;DHT22;20065;48.380;10.892;2023-07-31T05:34:10;16.70;99.90
33741;DHT22;20065;48.380;10.892;2023-07-31T05:36:56;16.70;99.90
33741;DHT22;20065;48.380;10.892;2023-07-31T05:39:42;16.70;99.90
33741;DHT22;20065;48.380;10.892;2023-07-31T05:42:28;16.70;99.90
33741;DHT22;20065;48.380;10.892;2023-07-31T05:45:15;16.70;99.90
33741;DHT22;20065;48.380;10.892;2023-07-31T05:48:01;16.80;99.90
33741;DHT22;20065;48.380;10.892;2023-07-31T05:50:47;16.80;99.90
33741;DHT22;20065;48.380;10.892;2023-07-31T05:53:33;17.00;99.90
33741;DHT22;20065;48.380;10.892;2023-07-31T05:56:19;17.00;99.90
33741;DHT22;20065;48.380;10.892;2023-07-31T05:59:06;17.00;99.90
33741;DHT22;20065;48.380;10.892;2023-07-31T06:01:52;17.00;99.90
33741;DHT22;20065;48.380;10.892;2023-07-31T06:04:39;17.00;99.90
33741;DHT22;20065;48.380;10.892;2023-07-31T06:07:25;17.10;99.90
33741;DHT22;20065;48.380;10.892;2023-07-31T06:10:11;17.10;99.90
33741;DHT22;20065;48.380;10.892;2023-07-31T06:12:57;17.00;99.90
33741;DHT22;20065;48.380;10.892;2023-07-31T06:15:44;17.10;99.90
33741;DHT22;20065;48.380;10.892;2023-07-31T06:18:30;17.20;99.90
33741;DHT22;20065;48.380;10.892;2023-07-31T06:21:17;17.10;99.90
33741;DHT22;20065;48.380;10.892;2023-07-31T06:24:04;17.10;99.90
33741;DHT22;20065;48.380;10.892;2023-07-31T06:26:50;16.80;99.90
33741;DHT22;20065;48.380;10.892;2023-07-31T06:29:36;17.10;99.90
33741;DHT22;20065;48.380;10.892;2023-07-31T06:32:24;17.10;99.90
33741;DHT22;20065;48.380;10.892;2023-07-31T06:35:10;17.20;99.90
33741;DHT22;20065;48.380;10.892;2023-07-31T06:37:57;17.30;99.90
33741;DHT22;20065;48.380;10.892;2023-07-31T06:40:43;17.30;99.90
33741;DHT22;20065;48.380;10.892;2023-07-31T06:43:29;17.40;99.90
33741;DHT22;20065;48.380;10.892;2023-07-31T06:46:15;17.40;99.90
33741;DHT22;20065;48.380;10.892;2023-07-31T06:49:01;17.60;99.90
33741;DHT22;20065;48.380;10.892;2023-07-31T06:51:48;17.40;99.90
33741;DHT22;20065;48.380;10.892;2023-07-31T06:54:34;17.50;99.90
33741;DHT22;20065;48.380;10.892;2023-07-31T06:57:20;17.50;99.90
33741;DHT22;20065;48.380;10.892;2023-07-31T07:00:07;17.50;99.90
33741;DHT22;20065;48.380;10.892;2023-07-31T07:02:54;17.60;99.90
33741;DHT22;20065;48.380;10.892;2023-07-31T07:05:40;17.70;99.90
33741;DHT22;20065;48.380;10.892;2023-07-31T07:08:27;17.70;99.90
33741;DHT22;20065;48.380;10.892;2023-07-31T07:11:13;17.90;99.90
33741;DHT22;20065;48.380;10.892;2023-07-31T07:13:59;18.00;99.90
33741;DHT22;20065;48.380;10.892;2023-07-31T07:16:51;17.90;99.90
33741;DHT22;20065;48.380;10.892;2023-07-31T07:19:40;18.00;99.90
33741;DHT22;20065;48.380;10.892;2023-07-31T07:22:27;18.00;99.90
33741;DHT22;20065;48.380;10.892;2023-07-31T07:25:14;18.10;99.90
33741;DHT22;20065;48.380;10.892;2023-07-31T07:28:05;18.10;99.90
33741;DHT22;20065;48.380;10.892;2023-07-31T07:30:53;18.20;99.90
33741;DHT22;20065;48.380;10.892;2023-07-31T07:33:39;18.30;99.90
33741;DHT22;20065;48.380;10.892;2023-07-31T07:36:27;18.30;99.90
33741;DHT22;20065;48.380;10.892;2023-07-31T07:39:14;18.40;99.90
33741;DHT22;20065;48.380;10.892;2023-07-31T07:42:01;18.30;99.90
33741;DHT22;20065;48.380;10.892;2023-07-31T07:44:47;18.30;99.90
33741;DHT22;20065;48.380;10.892;2023-07-31T07:47:33;18.40;99.90
33741;DHT22;20065;48.380;10.892;2023-07-31T07:50:19;18.30;99.90
33741;DHT22;20065;48.380;10.892;2023-07-31T07:53:06;18.20;99.90
33741;DHT22;20065;48.380;10.892;2023-07-31T07:55:52;18.20;99.90
33741;DHT22;20065;48.380;10.892;2023-07-31T07:58:38;18.30;99.90
33741;DHT22;20065;48.380;10.892;2023-07-31T08:01:24;18.20;99.90
33741;DHT22;20065;48.380;10.892;2023-07-31T08:04:10;18.20;99.90
33741;DHT22;20065;48.380;10.892;2023-07-31T08:06:57;18.20;99.90
33741;DHT22;20065;48.380;10.892;2023-07-31T08:09:43;18.10;99.90
33741;DHT22;20065;48.380;10.892;2023-07-31T08:12:29;18.10;99.90
33741;DHT22;20065;48.380;10.892;2023-07-31T08:15:15;18.10;99.90
33741;DHT22;20065;48.380;10.892;2023-07-31T08:18:01;18.10;99.90
33741;DHT22;20065;48.380;10.892;2023-07-31T08:20:48;18.10;99.90
33741;DHT22;20065;48.380;10.892;2023-07-31T08:23:35;18.10;99.90
33741;DHT22;20065;48.380;10.892;2023-07-31T08:26:22;18.10;99.90
33741;DHT22;20065;48.380;10.892;2023-07-31T08:29:08;18.20;99.90
33741;DHT22;20065;48.380;10.892;2023-07-31T08:31:55;18.20;99.90
33741;DHT22;20065;48.380;10.892;2023-07-31T08:34:41;18.20;99.90
33741;DHT22;20065;48.380;10.892;2023-07-31T08:37:27;18.30;99.90
33741;DHT22;20065;48.380;10.892;2023-07-31T08:40:14;18.20;99.90
33741;DHT22;20065;48.380;10.892;2023-07-31T08:43:00;18.20;99.90
33741;DHT22;20065;48.380;10.892;2023-07-31T08:45:49;18.40;99.90
33741;DHT22;20065;48.380;10.892;2023-07-31T08:48:38;18.50;99.90
33741;DHT22;20065;48.380;10.892;2023-07-31T08:51:25;18.70;99.90
33741;DHT22;20065;48.380;10.892;2023-07-31T08:54:21;18.60;99.90
33741;DHT22;20065;48.380;10.892;2023-07-31T08:57:18;18.50;99.90
33741;DHT22;20065;48.380;10.892;2023-07-31T09:00:05;18.40;99.90
33741;DHT22;20065;48.380;10.892;2023-07-31T09:03:03;18.40;99.90
33741;DHT22;20065;48.380;10.892;2023-07-31T09:05:55;18.30;99.90
33741;DHT22;20065;48.380;10.892;2023-07-31T09:08:42;18.30;99.90
33741;DHT22;20065;48.380;10.892;2023-07-31T09:11:29;18.50;99.90
33741;DHT22;20065;48.380;10.892;2023-07-31T09:14:15;18.50;99.90
33741;DHT22;20065;48.380;10.892;2023-07-31T09:17:02;18.60;99.90
33741;DHT22;20065;48.380;10.892;2023-07-31T09:19:48;18.60;99.90
33741;DHT22;20065;48.380;10.892;2023-07-31T09:22:35;18.70;99.90
33741;DHT22;20065;48.380;10.892;2023-07-31T09:25:23;18.80;99.90
33741;DHT22;20065;48.380;10.892;2023-07-31T09:28:10;18.80;99.90
33741;DHT22;20065;48.380;10.892;2023-07-31T09:30:57;18.90;99.90
33741;DHT22;20065;48.380;10.892;2023-07-31T09:33:55;18.90;99.90
33741;DHT22;20065;48.380;10.892;2023-07-31T09:36:48;19.10;99.90
33741;DHT22;20065;48.380;10.892;2023-07-31T09:39:46;19.20;99.90
33741;DHT22;20065;48.380;10.892;2023-07-31T09:42:34;19.40;99.90
33741;DHT22;20065;48.380;10.892;2023-07-31T09:45:21;19.20;99.90
33741;DHT22;20065;48.380;10.892;2023-07-31T09:48:10;19.40;99.90
33741;DHT22;20065;48.380;10.892;2023-07-31T09:51:04;19.40;99.90
33741;DHT22;20065;48.380;10.892;2023-07-31T09:53:51;19.40;99.90
33741;DHT22;20065;48.380;10.892;2023-07-31T09:56:48;19.60;99.90
33741;DHT22;20065;48.380;10.892;2023-07-31T09:59:35;19.90;99.90
33741;DHT22;20065;48.380;10.892;2023-07-31T10:02:22;19.70;99.90
33741;DHT22;20065;48.380;10.892;2023-07-31T10:05:09;19.70;99.90
33741;DHT22;20065;48.380;10.892;2023-07-31T10:07:57;19.60;99.90
33741;DHT22;20065;48.380;10.892;2023-07-31T10:10:44;19.50;99.90
33741;DHT22;20065;48.380;10.892;2023-07-31T10:13:32;19.50;99.90
33741;DHT22;20065;48.380;10.892;2023-07-31T10:16:19;19.60;99.90
33741;DHT22;20065;48.380;10.892;2023-07-31T10:19:09;19.80;99.90
33741;DHT22;20065;48.380;10.892;2023-07-31T10:22:02;19.80;99.90
33741;DHT22;20065;48.380;10.892;2023-07-31T10:24:50;19.90;99.90
33741;DHT22;20065;48.380;10.892;2023-07-31T10:27:41;19.90;99.90
33741;DHT22;20065;48.380;10.892;2023-07-31T10:30:30;19.90;99.90
33741;DHT22;20065;48.380;10.892;2023-07-31T10:33:17;19.90;99.90
33741;DHT22;20065;48.380;10.892;2023-07-31T10:36:22;19.90;99.90
33741;DHT22;20065;48.380;10.892;2023-07-31T10:39:35;20.00;99.90
33741;DHT22;20065;48.380;10.892;2023-07-31T10:42:28;20.20;99.90
33741;DHT22;20065;48.380;10.892;2023-07-31T10:45:35;20.40;99.90
33741;DHT22;20065;48.380;10.892;2023-07-31T10:48:22;20.50;99.90
33741;DHT22;20065;48.380;10.892;2023-07-31T10:51:15;20.30;99.90
33741;DHT22;20065;48.380;10.892;2023-07-31T10:54:15;20.40;99.90
33741;DHT22;20065;48.380;10.892;2023-07-31T10:57:02;20.50;99.90
33741;DHT22;20065;48.380;10.892;2023-07-31T11:03:12;20.30;99.90
33741;DHT22;20065;48.380;10.892;2023-07-31T11:06:00;20.40;99.90
33741;DHT22;20065;48.380;10.892;2023-07-31T11:08:49;20.40;99.90
33741;DHT22;20065;48.380;10.892;2023-07-31T11:11:36;20.50;99.90
33741;DHT22;20065;48.380;10.892;2023-07-31T11:14:22;20.50;99.90
33741;DHT22;20065;48.380;10.892;2023-07-31T11:17:09;20.70;99.90
33741;DHT22;20065;48.380;10.892;2023-07-31T11:19:55;20.70;99.90
33741;DHT22;20065;48.380;10.892;2023-07-31T11:22:41;20.80;99.90
33741;DHT22;20065;48.380;10.892;2023-07-31T11:25:31;21.00;99.90
33741;DHT22;20065;48.380;10.892;2023-07-31T11:28:19;21.00;99.90
33741;DHT22;20065;48.380;10.892;2023-07-31T11:31:05;21.00;99.90
33741;DHT22;20065;48.380;10.892;2023-07-31T11:34:04;20.90;99.90
33741;DHT22;20065;48.380;10.892;2023-07-31T11:36:54;21.00;99.90
33741;DHT22;20065;48.380;10.892;2023-07-31T11:39:41;21.10;99.90
33741;DHT22;20065;48.380;10.892;2023-07-31T11:42:27;21.40;99.90
33741;DHT22;20065;48.380;10.892;2023-07-31T11:45:13;21.30;99.90
33741;DHT22;20065;48.380;10.892;2023-07-31T11:48:00;21.40;99.90
33741;DHT22;20065;48.380;10.892;2023-07-31T11:50:48;21.40;99.90
33741;DHT22;20065;48.380;10.892;2023-07-31T11:53:40;21.40;99.90
33741;DHT22;20065;48.380;10.892;2023-07-31T11:56:27;21.50;99.90
33741;DHT22;20065;48.380;10.892;2023-07-31T11:59:14;21.60;99.90
33741;DHT22;20065;48.380;10.892;2023-07-31T12:02:01;21.50;99.90
33741;DHT22;20065;48.380;10.892;2023-07-31T12:04:47;21.50;99.90
33741;DHT22;20065;48.380;10.892;2023-07-31T12:07:52;21.40;99.90
33741;DHT22;20065;48.380;10.892;2023-07-31T12:10:39;21.50;99.90
33741;DHT22;20065;48.380;10.892;2023-07-31T12:13:26;21.80;99.90
33741;DHT22;20065;48.380;10.892;2023-07-31T12:16:12;22.00;99.90
33741;DHT22;20065;48.380;10.892;2023-07-31T12:18:59;22.00;99.90
33741;DHT22;20065;48.380;10.892;2023-07-31T12:21:45;21.80;99.90
33741;DHT22;20065;48.380;10.892;2023-07-31T12:24:34;21.60;99.90
33741;DHT22;20065;48.380;10.892;2023-07-31T12:27:20;21.70;99.90
33741;DHT22;20065;48.380;10.892;2023-07-31T12:30:33;22.00;99.90
33741;DHT22;20065;48.380;10.892;2023-07-31T12:33:20;22.10;99.90
33741;DHT22;20065;48.380;10.892;2023-07-31T12:36:11;22.30;99.90
33741;DHT22;20065;48.380;10.892;2023-07-31T12:38:58;22.40;99.90
33741;DHT22;20065;48.380;10.892;2023-07-31T12:41:44;22.60;99.90
33741;DHT22;20065;48.380;10.892;2023-07-31T12:44:30;22.60;99.90
33741;DHT22;20065;48.380;10.892;2023-07-31T12:47:16;22.80;99.90
33741;DHT22;20065;48.380;10.892;2023-07-31T12:50:03;22.70;99.90
33741;DHT22;20065;48.380;10.892;2023-07-31T12:52:49;22.60;99.90
33741;DHT22;20065;48.380;10.892;2023-07-31T12:55:35;22.70;99.90
33741;DHT22;20065;48.380;10.892;2023-07-31T12:58:22;22.90;99.90
33741;DHT22;20065;48.380;10.892;2023-07-31T13:01:09;22.80;99.90
33741;DHT22;20065;48.380;10.892;2023-07-31T13:03:56;22.80;99.90
33741;DHT22;20065;48.380;10.892;2023-07-31T13:06:42;22.60;99.90
33741;DHT22;20065;48.380;10.892;2023-07-31T13:09:28;22.30;99.90
33741;DHT22;20065;48.380;10.892;2023-07-31T13:12:15;22.40;99.90
33741;DHT22;20065;48.380;10.892;2023-07-31T13:15:01;22.50;99.90
33741;DHT22;20065;48.380;10.892;2023-07-31T13:17:47;22.70;99.90
33741;DHT22;20065;48.380;10.892;2023-07-31T13:20:33;22.90;99.90
33741;DHT22;20065;48.380;10.892;2023-07-31T13:23:19;23.20;99.90
33741;DHT22;20065;48.380;10.892;2023-07-31T13:26:05;23.20;99.90
33741;DHT22;20065;48.380;10.892;2023-07-31T13:28:52;23.20;99.90
33741;DHT22;20065;48.380;10.892;2023-07-31T13:31:38;23.20;99.90
33741;DHT22;20065;48.380;10.892;2023-07-31T13:34:26;23.20;99.90
33741;DHT22;20065;48.380;10.892;2023-07-31T13:37:13;23.40;99.90
33741;DHT22;20065;48.380;10.892;2023-07-31T13:39:59;23.30;99.90
33741;DHT22;20065;48.380;10.892;2023-07-31T13:42:46;23.20;99.90
33741;DHT22;20065;48.380;10.892;2023-07-31T13:45:33;23.20;99.90
33741;DHT22;20065;48.380;10.892;2023-07-31T13:48:21;23.00;99.90
33741;DHT22;20065;48.380;10.892;2023-07-31T13:51:07;22.90;99.90
33741;DHT22;20065;48.380;10.892;2023-07-31T13:53:53;22.90;99.90
33741;DHT22;20065;48.380;10.892;2023-07-31T13:56:39;22.90;99.90
33741;DHT22;20065;48.380;10.892;2023-07-31T13:59:26;22.80;99.90
33741;DHT22;20065;48.380;10.892;2023-07-31T14:02:12;22.60;99.90
33741;DHT22;20065;48.380;10.892;2023-07-31T14:04:59;22.50;99.90
33741;DHT22;20065;48.380;10.892;2023-07-31T14:07:45;22.40;99.90
33741;DHT22;20065;48.380;10.892;2023-07-31T14:10:32;22.40;99.90
33741;DHT22;20065;48.380;10.892;2023-07-31T14:13:18;22.20;99.90
33741;DHT22;20065;48.380;10.892;2023-07-31T14:16:04;22.10;99.90
33741;DHT22;20065;48.380;10.892;2023-07-31T14:18:50;21.90;99.90
33741;DHT22;20065;48.380;10.892;2023-07-31T14:21:36;21.80;99.90
33741;DHT22;20065;48.380;10.892;2023-07-31T14:24:23;21.70;99.90
33741;DHT22;20065;48.380;10.892;2023-07-31T14:27:09;21.70;99.90
33741;DHT22;20065;48.380;10.892;2023-07-31T14:29:55;21.70;99.90
33741;DHT22;20065;48.380;10.892;2023-07-31T14:32:41;21.70;99.90
33741;DHT22;20065;48.380;10.892;2023-07-31T14:35:34;21.50;99.90
33741;DHT22;20065;48.380;10.892;2023-07-31T14:38:20;21.50;99.90
33741;DHT22;20065;48.380;10.892;2023-07-31T14:41:06;21.40;99.90
33741;DHT22;20065;48.380;10.892;2023-07-31T14:43:52;21.40;99.90
33741;DHT22;20065;48.380;10.892;2023-07-31T14:46:39;21.30;99.90
33741;DHT22;20065;48.380;10.892;2023-07-31T14:49:25;21.30;99.90
33741;DHT22;20065;48.380;10.892;2023-07-31T14:52:13;21.30;99.90
33741;DHT22;20065;48.380;10.892;2023-07-31T14:54:59;21.40;99.90
33741;DHT22;20065;48.380;10.892;2023-07-31T14:57:45;21.40;99.90
33741;DHT22;20065;48.380;10.892;2023-07-31T15:00:31;21.50;99.90
33741;DHT22;20065;48.380;10.892;2023-07-31T15:03:17;21.50;99.90
33741;DHT22;20065;48.380;10.892;2023-07-31T15:06:04;21.50;99.90
33741;DHT22;20065;48.380;10.892;2023-07-31T15:08:52;21.60;99.90
33741;DHT22;20065;48.380;10.892;2023-07-31T15:11:38;21.50;99.90
33741;DHT22;20065;48.380;10.892;2023-07-31T15:14:24;21.50;99.90
33741;DHT22;20065;48.380;10.892;2023-07-31T15:17:11;21.50;99.90
33741;DHT22;20065;48.380;10.892;2023-07-31T15:19:57;21.60;99.90
33741;DHT22;20065;48.380;10.892;2023-07-31T15:22:43;21.50;99.90
33741;DHT22;20065;48.380;10.892;2023-07-31T15:25:30;21.30;99.90
33741;DHT22;20065;48.380;10.892;2023-07-31T15:28:16;21.20;99.90
33741;DHT22;20065;48.380;10.892;2023-07-31T15:31:03;21.30;99.90
33741;DHT22;20065;48.380;10.892;2023-07-31T15:33:49;21.30;99.90
33741;DHT22;20065;48.380;10.892;2023-07-31T15:36:37;21.30;99.90
33741;DHT22;20065;48.380;10.892;2023-07-31T15:39:23;21.30;99.90
33741;DHT22;20065;48.380;10.892;2023-07-31T15:42:10;21.20;99.90
33741;DHT22;20065;48.380;10.892;2023-07-31T15:44:56;21.30;99.90
33741;DHT22;20065;48.380;10.892;2023-07-31T15:47:42;21.20;99.90
33741;DHT22;20065;48.380;10.892;2023-07-31T15:50:28;21.00;99.90
33741;DHT22;20065;48.380;10.892;2023-07-31T15:53:14;20.80;99.90
33741;DHT22;20065;48.380;10.892;2023-07-31T15:56:01;20.80;99.90
33741;DHT22;20065;48.380;10.892;2023-07-31T15:58:47;21.00;99.90
33741;DHT22;20065;48.380;10.892;2023-07-31T16:01:33;21.00;99.90
33741;DHT22;20065;48.380;10.892;2023-07-31T16:04:19;20.90;99.90
33741;DHT22;20065;48.380;10.892;2023-07-31T16:07:06;21.00;99.90
33741;DHT22;20065;48.380;10.892;2023-07-31T16:09:52;21.10;99.90
33741;DHT22;20065;48.380;10.892;2023-07-31T16:12:38;21.00;99.90
33741;DHT22;20065;48.380;10.892;2023-07-31T16:15:27;21.00;99.90
33741;DHT22;20065;48.380;10.892;2023-07-31T16:18:15;21.00;99.90
33741;DHT22;20065;48.380;10.892;2023-07-31T16:21:01;21.10;99.90
33741;DHT22;20065;48.380;10.892;2023-07-31T16:23:47;21.20;99.90
33741;DHT22;20065;48.380;10.892;2023-07-31T16:26:34;21.30;99.90
33741;DHT22;20065;48.380;10.892;2023-07-31T16:29:20;21.40;99.90
33741;DHT22;20065;48.380;10.892;2023-07-31T16:32:06;21.60;99.90
33741;DHT22;20065;48.380;10.892;2023-07-31T16:34:53;21.80;99.90
33741;DHT22;20065;48.380;10.892;2023-07-31T16:37:39;21.90;99.90
33741;DHT22;20065;48.380;10.892;2023-07-31T16:40:26;21.90;99.90
33741;DHT22;20065;48.380;10.892;2023-07-31T16:43:12;22.00;99.90
33741;DHT22;20065;48.380;10.892;2023-07-31T16:45:58;21.80;99.90
33741;DHT22;20065;48.380;10.892;2023-07-31T16:48:44;21.70;99.90
33741;DHT22;20065;48.380;10.892;2023-07-31T16:51:30;21.80;99.90
33741;DHT22;20065;48.380;10.892;2023-07-31T16:54:17;21.60;99.90
33741;DHT22;20065;48.380;10.892;2023-07-31T16:57:03;21.70;99.90
33741;DHT22;20065;48.380;10.892;2023-07-31T16:59:49;21.70;99.90
33741;DHT22;20065;48.380;10.892;2023-07-31T17:02:36;21.60;99.90
33741;DHT22;20065;48.380;10.892;2023-07-31T17:05:22;21.70;99.90
33741;DHT22;20065;48.380;10.892;2023-07-31T17:08:09;21.80;99.90
33741;DHT22;20065;48.380;10.892;2023-07-31T17:10:56;21.90;99.90
33741;DHT22;20065;48.380;10.892;2023-07-31T17:13:42;22.00;99.90
33741;DHT22;20065;48.380;10.892;2023-07-31T17:16:28;22.10;99.90
33741;DHT22;20065;48.380;10.892;2023-07-31T17:19:17;22.10;99.90
33741;DHT22;20065;48.380;10.892;2023-07-31T17:22:14;22.10;99.90
33741;DHT22;20065;48.380;10.892;2023-07-31T17:25:00;22.00;99.90
33741;DHT22;20065;48.380;10.892;2023-07-31T17:27:47;22.00;99.90
33741;DHT22;20065;48.380;10.892;2023-07-31T17:30:33;21.90;99.90